createdAt,value
2019-02-10T00:05:02.905Z,98607.98
2019-02-10T00:10:10.432Z,98613.09
2019-02-10T00:15:18.635Z,98609.45
2019-02-10T00:20:24.692Z,98609.69
2019-02-10T00:25:30.420Z,98598.50
2019-02-10T00:30:40.286Z,98594.33
2019-02-10T00:35:46.085Z,98595.10
2019-02-10T00:40:54.704Z,98598.86
2019-02-10T00:46:00.569Z,98606.48
2019-02-10T00:51:06.668Z,98607.63
2019-02-10T00:56:14.907Z,98600.45
2019-02-10T01:01:25.800Z,98599.68
2019-02-10T01:06:41.182Z,98605.98
2019-02-10T01:11:41.586Z,98596.07
2019-02-10T01:16:47.398Z,98594.56
2019-02-10T01:21:53.798Z,98582.58
2019-02-10T01:27:02.580Z,98589.14
2019-02-10T01:32:10.029Z,98577.92
2019-02-10T01:37:19.227Z,98571.64
2019-02-10T01:42:27.912Z,98555.56
2019-02-10T01:47:33.613Z,98569.53
2019-02-10T01:52:41.779Z,98563.95
2019-02-10T01:57:47.530Z,98570.99
2019-02-10T02:02:53.296Z,98562.73
2019-02-10T02:07:59.898Z,98568.03
2019-02-10T02:13:09.759Z,98559.00
2019-02-10T02:18:15.500Z,98547.02
2019-02-10T02:23:21.755Z,98547.50
2019-02-10T02:28:28.769Z,98539.60
2019-02-10T02:33:34.537Z,98520.94
2019-02-10T02:38:44.470Z,98511.94
2019-02-10T02:43:52.186Z,98502.03
2019-02-10T02:49:00.890Z,98486.11
2019-02-10T02:54:08.209Z,98484.30
2019-02-10T02:59:13.911Z,98479.92
2019-02-10T03:04:19.524Z,98433.64
2019-02-10T03:09:25.617Z,98433.64
2019-02-10T03:14:32.582Z,98434.86
2019-02-10T03:19:39.823Z,98426.14
2019-02-10T03:24:46.002Z,98417.17
2019-02-10T03:29:51.598Z,98412.52
2019-02-10T03:34:57.301Z,98417.41
2019-02-10T03:40:03.312Z,98411.42
2019-02-10T03:45:09.715Z,98406.45
2019-02-10T03:50:18.412Z,98398.45
2019-02-10T03:55:28.827Z,98384.09
2019-02-10T04:00:38.836Z,98390.89
2019-02-10T04:05:44.472Z,98368.06
2019-02-10T04:10:51.800Z,98366.72
2019-02-10T04:15:59.484Z,98372.32
2019-02-10T04:21:06.836Z,98366.38
2019-02-10T04:26:13.421Z,98364.08
2019-02-10T04:31:19.135Z,98354.58
2019-02-10T04:36:25.150Z,98348.88
2019-02-10T04:41:30.700Z,98342.32
2019-02-10T04:46:36.938Z,98327.39
2019-02-10T04:51:50.305Z,98317.43
2019-02-10T04:56:58.851Z,98311.83
2019-02-10T05:02:06.303Z,98311.59
2019-02-10T05:07:11.959Z,98293.98
2019-02-10T05:12:17.792Z,98293.98
2019-02-10T05:17:23.456Z,98265.47
2019-02-10T05:22:30.151Z,98265.47
2019-02-10T05:27:36.300Z,98254.04
2019-02-10T05:32:42.437Z,98219.33
2019-02-10T05:37:50.558Z,98219.33
2019-02-10T05:42:59.638Z,98211.06
2019-02-10T05:48:07.645Z,98209.74
2019-02-10T05:53:13.287Z,98212.47
2019-02-10T05:58:21.064Z,98205.67
2019-02-10T06:03:30.692Z,98187.06
2019-02-10T06:08:41.462Z,98160.09
2019-02-10T06:13:47.523Z,98160.38
2019-02-10T06:18:53.369Z,98136.09
2019-02-10T06:23:59.779Z,98124.52
2019-02-10T06:29:08.054Z,98119.16
2019-02-10T06:34:21.237Z,98107.16
2019-02-10T06:39:28.069Z,98082.95
2019-02-10T06:44:33.843Z,98084.10
2019-02-10T06:49:40.097Z,98063.61
2019-02-10T06:54:54.767Z,98021.63
2019-02-10T07:00:22.803Z,98044.00
2019-02-10T07:05:26.786Z,98056.91
2019-02-10T07:10:35.237Z,98054.42
2019-02-10T07:16:16.090Z,98058.80
2019-02-10T07:21:26.470Z,98037.33
2019-02-10T07:27:16.985Z,97983.09
2019-02-10T07:32:34.812Z,97994.66
2019-02-10T07:37:53.940Z,98013.18
2019-02-10T07:43:55.944Z,98010.63
2019-02-10T07:49:47.296Z,98014.63
2019-02-10T07:55:17.143Z,97988.48
2019-02-10T08:01:04.700Z,97974.33
2019-02-10T08:06:42.647Z,97952.47
2019-02-10T08:12:35.941Z,97959.25
2019-02-10T08:18:21.603Z,97953.16
2019-02-10T08:23:59.550Z,97921.76
2019-02-10T08:29:43.790Z,97895.80
2019-02-10T08:35:23.106Z,97880.50
2019-02-10T08:41:08.567Z,97863.73
2019-02-10T08:46:27.420Z,97853.94
2019-02-10T08:52:13.047Z,97837.61
2019-02-10T08:57:22.085Z,97813.70
2019-02-10T09:02:32.663Z,97824.18
2019-02-10T09:07:38.720Z,97801.11
2019-02-10T09:12:45.969Z,97779.70
2019-02-10T09:17:55.909Z,97760.91
2019-02-10T09:23:03.722Z,97752.17
2019-02-10T09:28:14.036Z,97731.59
2019-02-10T09:38:56.803Z,97704.66
2019-02-10T09:44:08.240Z,97700.73
2019-02-10T09:49:21.012Z,97692.34
2019-02-10T09:54:34.566Z,97674.66
2019-02-10T09:59:48.921Z,97661.35
2019-02-10T10:05:13.175Z,97645.73
2019-02-10T10:10:22.067Z,97637.73
2019-02-10T10:15:36.607Z,97633.08
2019-02-10T10:20:44.537Z,97601.95
2019-02-10T10:25:58.185Z,97594.63
2019-02-10T10:31:11.952Z,97591.77
2019-02-10T10:36:19.105Z,97593.83
2019-02-10T10:41:49.048Z,97572.98
2019-02-10T10:47:13.520Z,97567.54
2019-02-10T10:52:25.188Z,97545.63
2019-02-10T10:57:40.129Z,97555.66
2019-02-10T11:02:50.614Z,97528.33
2019-02-10T11:08:02.879Z,97532.81
2019-02-10T11:18:36.038Z,97498.70
2019-02-10T11:23:54.227Z,97472.14
2019-02-10T11:29:06.931Z,97463.89
2019-02-10T11:34:17.980Z,97470.78
2019-02-10T11:39:29.615Z,97458.88
2019-02-10T11:44:53.185Z,97472.13
2019-02-10T11:50:08.735Z,97459.94
2019-02-10T11:55:22.190Z,97427.66
2019-02-10T12:00:33.502Z,97398.13
2019-02-10T12:06:00.577Z,97363.73
2019-02-10T12:11:12.268Z,97352.78
2019-02-10T12:16:36.286Z,97324.06
2019-02-10T12:27:02.298Z,97282.34
2019-02-10T12:32:18.599Z,97264.39
2019-02-10T12:37:32.584Z,97226.33
2019-02-10T12:42:35.829Z,97215.27
2019-02-10T12:47:45.950Z,97193.12
2019-02-10T12:53:00.335Z,97197.44
2019-02-10T12:58:09.629Z,97185.53
2019-02-10T13:03:23.551Z,97176.64
2019-02-10T13:08:29.788Z,97154.87
2019-02-10T13:13:43.420Z,97131.39
2019-02-10T13:18:55.027Z,97134.05
2019-02-10T13:24:06.405Z,97124.33
2019-02-10T13:29:19.749Z,97106.37
2019-02-10T13:34:29.030Z,97091.01
2019-02-10T13:39:38.210Z,97088.09
2019-02-10T13:44:44.366Z,97073.97
2019-02-10T13:49:55.590Z,97057.53
2019-02-10T13:55:01.651Z,97058.08
2019-02-10T14:00:10.700Z,97010.28
2019-02-10T14:05:25.085Z,97017.55
2019-02-10T14:10:37.006Z,97005.00
2019-02-10T14:15:52.928Z,97006.66
2019-02-10T14:21:18.195Z,96975.69
2019-02-10T14:26:34.042Z,96976.97
2019-02-10T14:31:44.750Z,96982.41
2019-02-10T14:36:56.177Z,96972.95
2019-02-10T14:42:22.154Z,96981.11
2019-02-10T14:47:37.011Z,96971.09
2019-02-10T14:53:16.680Z,96962.36
2019-02-10T14:58:24.873Z,96947.08
2019-02-10T15:03:44.427Z,96944.67
2019-02-10T15:08:55.485Z,96939.34
2019-02-10T15:14:24.082Z,96935.12
2019-02-10T15:19:41.939Z,96921.34
2019-02-10T15:25:10.287Z,96912.98
2019-02-10T15:30:23.895Z,96890.01
2019-02-10T15:35:48.025Z,96882.06
2019-02-10T15:40:58.248Z,96876.23
2019-02-10T15:46:09.250Z,96849.67
2019-02-10T15:51:28.781Z,96852.39
2019-02-10T15:56:45.050Z,96835.83
2019-02-10T16:02:00.996Z,96858.52
2019-02-10T16:13:07.095Z,96841.96
2019-02-10T16:18:20.191Z,96847.22
2019-02-10T16:23:29.963Z,96840.80
2019-02-10T16:28:39.129Z,96815.31
2019-02-10T16:33:53.190Z,96830.05
2019-02-10T16:39:13.156Z,96820.55
2019-02-10T16:44:33.802Z,96811.52
2019-02-10T16:49:46.114Z,96808.30
2019-02-10T16:54:55.567Z,96805.36
2019-02-10T17:00:06.818Z,96800.48
2019-02-10T17:05:28.194Z,96803.53
2019-02-10T17:10:37.141Z,96792.77
2019-02-10T17:16:05.231Z,96809.84
2019-02-10T17:21:15.834Z,96802.61
2019-02-10T17:26:32.561Z,96814.34
2019-02-10T17:31:56.984Z,96812.30
2019-02-10T17:37:09.913Z,96822.86
2019-02-10T17:42:32.274Z,96821.58
2019-02-10T17:47:44.966Z,96811.11
2019-02-10T17:52:59.682Z,96823.59
2019-02-10T17:58:15.473Z,96827.33
2019-02-10T18:03:25.012Z,96825.42
2019-02-10T18:08:37.993Z,96838.16
2019-02-10T18:14:02.351Z,96831.62
2019-02-10T18:19:29.654Z,96825.14
2019-02-10T18:25:05.855Z,96838.87
2019-02-10T18:30:51.450Z,96819.64
2019-02-10T18:36:28.418Z,96821.78
2019-02-10T18:42:07.123Z,96821.91
2019-02-10T18:47:44.291Z,96803.91
2019-02-10T18:53:22.535Z,96804.60
2019-02-10T18:59:05.062Z,96798.42
2019-02-10T19:04:32.571Z,96801.02
2019-02-10T19:10:15.351Z,96800.41
2019-02-10T19:15:59.944Z,96808.85
2019-02-10T19:21:44.670Z,96823.20
2019-02-10T19:27:29.777Z,96820.75
2019-02-10T19:33:21.663Z,96827.55
2019-02-10T19:38:57.998Z,96834.02
2019-02-10T19:44:45.092Z,96819.47
2019-02-10T19:50:27.946Z,96827.52
2019-02-10T19:56:11.654Z,96846.30
2019-02-10T20:02:05.239Z,96847.52
2019-02-10T20:07:31.013Z,96861.63
2019-02-10T20:13:00.686Z,96887.23
2019-02-10T20:18:19.679Z,96887.84
2019-02-10T20:24:04.103Z,96908.47
2019-02-10T20:29:59.376Z,96893.35
2019-02-10T20:35:26.747Z,96909.16
2019-02-10T20:41:03.531Z,96933.30
2019-02-10T20:46:37.232Z,96925.59
2019-02-10T20:52:04.481Z,96939.84
2019-02-10T20:57:42.624Z,96924.31
2019-02-10T21:03:06.636Z,96917.61
2019-02-10T21:08:32.208Z,96902.24
2019-02-10T21:14:01.259Z,96928.39
2019-02-10T21:19:19.006Z,96925.72
2019-02-10T21:24:57.379Z,96939.83
2019-02-10T21:30:15.984Z,96945.05
2019-02-10T21:35:40.626Z,96977.25
2019-02-10T21:41:11.356Z,96983.63
2019-02-10T21:46:36.474Z,96993.52
2019-02-10T21:51:45.981Z,97008.06
2019-02-10T21:57:00.059Z,97009.43
2019-02-10T22:02:11.337Z,96991.84
2019-02-10T22:07:21.443Z,97029.88
2019-02-10T22:12:37.109Z,97050.98
2019-02-10T22:17:41.406Z,97072.38
2019-02-10T22:22:47.219Z,97043.41
2019-02-10T22:27:53.107Z,97056.97
2019-02-10T22:33:00.440Z,97072.88
2019-02-10T22:38:08.814Z,97056.30
2019-02-10T22:43:14.797Z,97040.73
2019-02-10T22:48:20.653Z,97045.92
2019-02-10T22:53:30.723Z,97045.38
2019-02-10T22:58:43.780Z,97034.99
2019-02-10T23:03:49.684Z,97020.59
2019-02-10T23:08:59.656Z,97027.61
2019-02-10T23:14:06.156Z,97029.87
2019-02-10T23:19:13.167Z,97010.97
2019-02-10T23:24:18.955Z,97028.28
2019-02-10T23:29:37.300Z,97029.50
2019-02-10T23:34:48.557Z,97038.70
2019-02-10T23:39:59.281Z,97034.97
2019-02-10T23:45:06.507Z,97035.63
2019-02-10T23:56:36.051Z,97012.55
